sensor_id;sensor_type;location;lat;lon;timestamp;temperature;humidity
2130;DHT22;1071;52.544;13.374;2023-02-04T00:00:36;6.70;99.90
2130;DHT22;1071;52.544;13.374;2023-02-04T00:03:04;6.60;99.90
2130;DHT22;1071;52.544;13.374;2023-02-04T00:05:32;6.60;99.90
2130;DHT22;1071;52.544;13.374;2023-02-04T00:08:02;6.60;99.90
2130;DHT22;1071;52.544;13.374;2023-02-04T00:10:29;6.60;99.90
2130;DHT22;1071;52.544;13.374;2023-02-04T00:13:00;6.50;99.90
2130;DHT22;1071;52.544;13.374;2023-02-04T00:15:27;6.50;99.90
2130;DHT22;1071;52.544;13.374;2023-02-04T00:17:54;6.50;99.90
2130;DHT22;1071;52.544;13.374;2023-02-04T00:20:22;6.40;99.90
2130;DHT22;1071;52.544;13.374;2023-02-04T00:22:49;6.40;99.90
2130;DHT22;1071;52.544;13.374;2023-02-04T00:25:16;6.40;99.90
2130;DHT22;1071;52.544;13.374;2023-02-04T00:27:43;6.40;99.90
2130;DHT22;1071;52.544;13.374;2023-02-04T00:30:14;6.40;99.90
2130;DHT22;1071;52.544;13.374;2023-02-04T00:32:41;6.40;99.90
2130;DHT22;1071;52.544;13.374;2023-02-04T00:35:09;6.40;99.90
2130;DHT22;1071;52.544;13.374;2023-02-04T00:37:36;6.30;99.90
2130;DHT22;1071;52.544;13.374;2023-02-04T00:40:03;6.30;99.90
2130;DHT22;1071;52.544;13.374;2023-02-04T00:42:30;6.20;99.90
2130;DHT22;1071;52.544;13.374;2023-02-04T00:44:58;6.20;99.90
2130;DHT22;1071;52.544;13.374;2023-02-04T00:47:26;6.20;99.90
2130;DHT22;1071;52.544;13.374;2023-02-04T00:49:53;6.10;99.90
2130;DHT22;1071;52.544;13.374;2023-02-04T00:52:20;6.10;99.90
2130;DHT22;1071;52.544;13.374;2023-02-04T00:54:47;6.10;99.90
2130;DHT22;1071;52.544;13.374;2023-02-04T00:57:14;6.00;99.90
2130;DHT22;1071;52.544;13.374;2023-02-04T00:59:41;6.00;99.90
2130;DHT22;1071;52.544;13.374;2023-02-04T01:02:08;5.90;99.90
2130;DHT22;1071;52.544;13.374;2023-02-04T01:04:36;5.90;99.90
2130;DHT22;1071;52.544;13.374;2023-02-04T01:07:03;5.80;99.90
2130;DHT22;1071;52.544;13.374;2023-02-04T01:09:31;5.70;99.90
2130;DHT22;1071;52.544;13.374;2023-02-04T01:12:01;5.80;99.90
2130;DHT22;1071;52.544;13.374;2023-02-04T01:14:28;5.80;99.90
2130;DHT22;1071;52.544;13.374;2023-02-04T01:16:58;5.80;99.90
2130;DHT22;1071;52.544;13.374;2023-02-04T01:19:26;5.70;99.90
2130;DHT22;1071;52.544;13.374;2023-02-04T01:21:54;5.70;99.90
2130;DHT22;1071;52.544;13.374;2023-02-04T01:24:21;5.80;99.90
2130;DHT22;1071;52.544;13.374;2023-02-04T01:26:48;5.70;99.90
2130;DHT22;1071;52.544;13.374;2023-02-04T01:29:15;5.70;99.90
2130;DHT22;1071;52.544;13.374;2023-02-04T01:31:42;5.80;99.90
2130;DHT22;1071;52.544;13.374;2023-02-04T01:34:09;5.70;99.90
2130;DHT22;1071;52.544;13.374;2023-02-04T01:36:36;5.80;99.90
2130;DHT22;1071;52.544;13.374;2023-02-04T01:39:05;5.70;99.90
2130;DHT22;1071;52.544;13.374;2023-02-04T01:41:32;5.70;99.90
2130;DHT22;1071;52.544;13.374;2023-02-04T01:43:59;5.60;99.90
2130;DHT22;1071;52.544;13.374;2023-02-04T01:46:26;5.60;99.90
2130;DHT22;1071;52.544;13.374;2023-02-04T01:48:53;5.60;99.90
2130;DHT22;1071;52.544;13.374;2023-02-04T01:51:24;5.60;99.90
2130;DHT22;1071;52.544;13.374;2023-02-04T01:53:52;5.60;99.90
2130;DHT22;1071;52.544;13.374;2023-02-04T01:56:23;5.50;99.90
2130;DHT22;1071;52.544;13.374;2023-02-04T01:58:52;5.50;99.90
2130;DHT22;1071;52.544;13.374;2023-02-04T02:01:34;5.50;99.90
2130;DHT22;1071;52.544;13.374;2023-02-04T02:04:01;5.50;99.90
2130;DHT22;1071;52.544;13.374;2023-02-04T02:06:29;5.40;99.90
2130;DHT22;1071;52.544;13.374;2023-02-04T02:08:59;5.40;99.90
2130;DHT22;1071;52.544;13.374;2023-02-04T02:11:27;5.40;99.90
2130;DHT22;1071;52.544;13.374;2023-02-04T02:13:55;5.40;99.90
2130;DHT22;1071;52.544;13.374;2023-02-04T02:16:22;5.40;99.90
2130;DHT22;1071;52.544;13.374;2023-02-04T02:18:49;5.40;99.90
2130;DHT22;1071;52.544;13.374;2023-02-04T02:21:23;5.30;99.90
2130;DHT22;1071;52.544;13.374;2023-02-04T02:23:56;5.40;99.90
2130;DHT22;1071;52.544;13.374;2023-02-04T02:26:25;5.40;99.90
2130;DHT22;1071;52.544;13.374;2023-02-04T02:28:54;5.40;99.90
2130;DHT22;1071;52.544;13.374;2023-02-04T02:31:21;5.40;99.90
2130;DHT22;1071;52.544;13.374;2023-02-04T02:33:49;5.40;99.90
2130;DHT22;1071;52.544;13.374;2023-02-04T02:36:25;5.40;99.90
2130;DHT22;1071;52.544;13.374;2023-02-04T02:38:52;5.40;99.90
2130;DHT22;1071;52.544;13.374;2023-02-04T02:41:21;5.30;99.90
2130;DHT22;1071;52.544;13.374;2023-02-04T02:43:48;5.40;99.90
2130;DHT22;1071;52.544;13.374;2023-02-04T02:46:16;5.30;99.90
2130;DHT22;1071;52.544;13.374;2023-02-04T02:48:46;5.30;99.90
2130;DHT22;1071;52.544;13.374;2023-02-04T02:51:13;5.30;99.90
2130;DHT22;1071;52.544;13.374;2023-02-04T02:53:40;5.30;99.90
2130;DHT22;1071;52.544;13.374;2023-02-04T02:56:10;5.30;99.90
2130;DHT22;1071;52.544;13.374;2023-02-04T02:58:38;5.30;99.90
2130;DHT22;1071;52.544;13.374;2023-02-04T03:01:07;5.30;99.90
2130;DHT22;1071;52.544;13.374;2023-02-04T03:03:37;5.30;99.90
2130;DHT22;1071;52.544;13.374;2023-02-04T03:06:06;5.40;99.90
2130;DHT22;1071;52.544;13.374;2023-02-04T03:08:35;5.30;99.90
2130;DHT22;1071;52.544;13.374;2023-02-04T03:11:02;5.30;99.90
2130;DHT22;1071;52.544;13.374;2023-02-04T03:13:29;5.30;99.90
2130;DHT22;1071;52.544;13.374;2023-02-04T03:16:00;5.30;99.90
2130;DHT22;1071;52.544;13.374;2023-02-04T03:18:27;5.30;99.90
2130;DHT22;1071;52.544;13.374;2023-02-04T03:20:55;5.20;99.90
2130;DHT22;1071;52.544;13.374;2023-02-04T03:23:23;5.20;99.90
2130;DHT22;1071;52.544;13.374;2023-02-04T03:25:51;5.20;99.90
2130;DHT22;1071;52.544;13.374;2023-02-04T03:28:21;5.20;99.90
2130;DHT22;1071;52.544;13.374;2023-02-04T03:30:49;5.10;99.90
2130;DHT22;1071;52.544;13.374;2023-02-04T03:33:21;5.20;99.90
2130;DHT22;1071;52.544;13.374;2023-02-04T03:35:48;5.20;99.90
2130;DHT22;1071;52.544;13.374;2023-02-04T03:38:16;5.20;99.90
2130;DHT22;1071;52.544;13.374;2023-02-04T03:40:44;5.20;99.90
2130;DHT22;1071;52.544;13.374;2023-02-04T03:43:11;5.20;99.90
2130;DHT22;1071;52.544;13.374;2023-02-04T03:45:38;5.10;99.90
2130;DHT22;1071;52.544;13.374;2023-02-04T03:48:05;5.10;99.90
2130;DHT22;1071;52.544;13.374;2023-02-04T03:50:34;5.10;99.90
2130;DHT22;1071;52.544;13.374;2023-02-04T03:53:03;5.20;99.90
2130;DHT22;1071;52.544;13.374;2023-02-04T03:55:33;5.20;99.90
2130;DHT22;1071;52.544;13.374;2023-02-04T03:58:00;5.10;99.90
2130;DHT22;1071;52.544;13.374;2023-02-04T04:00:28;5.10;99.90
2130;DHT22;1071;52.544;13.374;2023-02-04T04:02:57;5.10;99.90
2130;DHT22;1071;52.544;13.374;2023-02-04T04:05:25;5.10;99.90
2130;DHT22;1071;52.544;13.374;2023-02-04T04:07:54;5.20;99.90
2130;DHT22;1071;52.544;13.374;2023-02-04T04:10:21;5.20;99.90
2130;DHT22;1071;52.544;13.374;2023-02-04T04:12:50;5.20;99.90
2130;DHT22;1071;52.544;13.374;2023-02-04T04:15:18;5.20;99.90
2130;DHT22;1071;52.544;13.374;2023-02-04T04:17:45;5.20;99.90
2130;DHT22;1071;52.544;13.374;2023-02-04T04:20:12;5.20;99.90
2130;DHT22;1071;52.544;13.374;2023-02-04T04:22:39;5.20;99.90
2130;DHT22;1071;52.544;13.374;2023-02-04T04:25:08;5.20;99.90
2130;DHT22;1071;52.544;13.374;2023-02-04T04:27:35;5.20;99.90
2130;DHT22;1071;52.544;13.374;2023-02-04T04:30:03;5.20;99.90
2130;DHT22;1071;52.544;13.374;2023-02-04T04:32:30;5.20;99.90
2130;DHT22;1071;52.544;13.374;2023-02-04T04:34:57;5.20;99.90
2130;DHT22;1071;52.544;13.374;2023-02-04T04:37:24;5.30;99.90
2130;DHT22;1071;52.544;13.374;2023-02-04T04:39:51;5.20;99.90
2130;DHT22;1071;52.544;13.374;2023-02-04T04:42:20;5.20;99.90
2130;DHT22;1071;52.544;13.374;2023-02-04T04:44:47;5.20;99.90
2130;DHT22;1071;52.544;13.374;2023-02-04T04:47:14;5.20;99.90
2130;DHT22;1071;52.544;13.374;2023-02-04T04:49:41;5.20;99.90
2130;DHT22;1071;52.544;13.374;2023-02-04T04:52:10;5.20;99.90
2130;DHT22;1071;52.544;13.374;2023-02-04T04:54:37;5.20;99.90
2130;DHT22;1071;52.544;13.374;2023-02-04T04:57:04;5.20;99.90
2130;DHT22;1071;52.544;13.374;2023-02-04T04:59:32;5.20;99.90
2130;DHT22;1071;52.544;13.374;2023-02-04T05:01:59;5.20;99.90
2130;DHT22;1071;52.544;13.374;2023-02-04T05:04:26;5.10;99.90
2130;DHT22;1071;52.544;13.374;2023-02-04T05:06:53;5.10;99.90
2130;DHT22;1071;52.544;13.374;2023-02-04T05:09:20;5.10;99.90
2130;DHT22;1071;52.544;13.374;2023-02-04T05:11:47;5.10;99.90
2130;DHT22;1071;52.544;13.374;2023-02-04T05:14:15;5.10;99.90
2130;DHT22;1071;52.544;13.374;2023-02-04T05:16:43;5.10;99.90
2130;DHT22;1071;52.544;13.374;2023-02-04T05:19:10;5.00;99.90
2130;DHT22;1071;52.544;13.374;2023-02-04T05:21:37;5.00;99.90
2130;DHT22;1071;52.544;13.374;2023-02-04T05:24:04;5.00;99.90
2130;DHT22;1071;52.544;13.374;2023-02-04T05:26:32;5.00;99.90
2130;DHT22;1071;52.544;13.374;2023-02-04T05:28:59;5.00;99.90
2130;DHT22;1071;52.544;13.374;2023-02-04T05:31:26;4.90;99.90
2130;DHT22;1071;52.544;13.374;2023-02-04T05:33:55;4.90;99.90
2130;DHT22;1071;52.544;13.374;2023-02-04T05:36:22;4.90;99.90
2130;DHT22;1071;52.544;13.374;2023-02-04T05:38:49;4.90;99.90
2130;DHT22;1071;52.544;13.374;2023-02-04T05:41:19;4.90;99.90
2130;DHT22;1071;52.544;13.374;2023-02-04T05:43:46;4.90;99.90
2130;DHT22;1071;52.544;13.374;2023-02-04T05:46:13;4.90;99.90
2130;DHT22;1071;52.544;13.374;2023-02-04T05:48:40;4.90;99.90
2130;DHT22;1071;52.544;13.374;2023-02-04T05:51:08;4.90;99.90
2130;DHT22;1071;52.544;13.374;2023-02-04T05:53:35;4.90;99.90
2130;DHT22;1071;52.544;13.374;2023-02-04T05:56:02;4.80;99.90
2130;DHT22;1071;52.544;13.374;2023-02-04T05:58:29;4.80;99.90
2130;DHT22;1071;52.544;13.374;2023-02-04T06:00:58;4.80;99.90
2130;DHT22;1071;52.544;13.374;2023-02-04T06:03:26;4.80;99.90
2130;DHT22;1071;52.544;13.374;2023-02-04T06:05:53;4.80;99.90
2130;DHT22;1071;52.544;13.374;2023-02-04T06:08:22;4.80;99.90
2130;DHT22;1071;52.544;13.374;2023-02-04T06:10:49;4.80;99.90
2130;DHT22;1071;52.544;13.374;2023-02-04T06:13:16;4.80;99.90
2130;DHT22;1071;52.544;13.374;2023-02-04T06:15:43;4.70;99.90
2130;DHT22;1071;52.544;13.374;2023-02-04T06:18:10;4.70;99.90
2130;DHT22;1071;52.544;13.374;2023-02-04T06:20:38;4.70;99.90
2130;DHT22;1071;52.544;13.374;2023-02-04T06:23:05;4.70;99.90
2130;DHT22;1071;52.544;13.374;2023-02-04T06:25:39;4.70;99.90
2130;DHT22;1071;52.544;13.374;2023-02-04T06:28:06;4.70;99.90
2130;DHT22;1071;52.544;13.374;2023-02-04T06:30:33;4.70;99.90
2130;DHT22;1071;52.544;13.374;2023-02-04T06:33:01;4.70;99.90
2130;DHT22;1071;52.544;13.374;2023-02-04T06:35:29;4.60;99.90
2130;DHT22;1071;52.544;13.374;2023-02-04T06:37:58;4.60;99.90
2130;DHT22;1071;52.544;13.374;2023-02-04T06:40:25;4.60;99.90
2130;DHT22;1071;52.544;13.374;2023-02-04T06:42:53;4.60;99.90
2130;DHT22;1071;52.544;13.374;2023-02-04T06:45:20;4.60;99.90
2130;DHT22;1071;52.544;13.374;2023-02-04T06:47:47;4.60;99.90
2130;DHT22;1071;52.544;13.374;2023-02-04T06:50:15;4.60;99.90
2130;DHT22;1071;52.544;13.374;2023-02-04T06:52:44;4.60;99.90
2130;DHT22;1071;52.544;13.374;2023-02-04T06:55:11;4.60;99.90
2130;DHT22;1071;52.544;13.374;2023-02-04T06:57:39;4.60;99.90
2130;DHT22;1071;52.544;13.374;2023-02-04T07:00:09;4.60;99.90
2130;DHT22;1071;52.544;13.374;2023-02-04T07:02:37;4.60;99.90
2130;DHT22;1071;52.544;13.374;2023-02-04T07:05:07;4.50;99.90
2130;DHT22;1071;52.544;13.374;2023-02-04T07:07:34;4.50;99.90
2130;DHT22;1071;52.544;13.374;2023-02-04T07:10:03;4.50;99.90
2130;DHT22;1071;52.544;13.374;2023-02-04T07:12:30;4.50;99.90
2130;DHT22;1071;52.544;13.374;2023-02-04T07:14:57;4.50;99.90
2130;DHT22;1071;52.544;13.374;2023-02-04T07:17:26;4.50;99.90
2130;DHT22;1071;52.544;13.374;2023-02-04T07:19:53;4.50;99.90
2130;DHT22;1071;52.544;13.374;2023-02-04T07:22:20;4.50;99.90
2130;DHT22;1071;52.544;13.374;2023-02-04T07:24:47;4.50;99.90
2130;DHT22;1071;52.544;13.374;2023-02-04T07:27:14;4.50;99.90
2130;DHT22;1071;52.544;13.374;2023-02-04T07:29:41;4.50;99.90
2130;DHT22;1071;52.544;13.374;2023-02-04T07:32:08;4.50;99.90
2130;DHT22;1071;52.544;13.374;2023-02-04T07:34:36;4.50;99.90
2130;DHT22;1071;52.544;13.374;2023-02-04T07:37:03;4.50;99.90
2130;DHT22;1071;52.544;13.374;2023-02-04T07:39:30;4.50;99.90
2130;DHT22;1071;52.544;13.374;2023-02-04T07:41:57;4.50;99.90
2130;DHT22;1071;52.544;13.374;2023-02-04T07:44:30;4.50;99.90
2130;DHT22;1071;52.544;13.374;2023-02-04T07:46:57;4.50;99.90
2130;DHT22;1071;52.544;13.374;2023-02-04T07:49:25;4.50;99.90
2130;DHT22;1071;52.544;13.374;2023-02-04T07:51:54;4.60;99.90
2130;DHT22;1071;52.544;13.374;2023-02-04T07:54:22;4.60;99.90
2130;DHT22;1071;52.544;13.374;2023-02-04T07:56:52;4.60;99.90
2130;DHT22;1071;52.544;13.374;2023-02-04T07:59:19;4.60;99.90
2130;DHT22;1071;52.544;13.374;2023-02-04T08:01:46;4.60;99.90
2130;DHT22;1071;52.544;13.374;2023-02-04T08:04:17;4.60;99.90
2130;DHT22;1071;52.544;13.374;2023-02-04T08:06:44;4.70;99.90
2130;DHT22;1071;52.544;13.374;2023-02-04T08:09:12;4.70;99.90
2130;DHT22;1071;52.544;13.374;2023-02-04T08:11:39;4.70;99.90
2130;DHT22;1071;52.544;13.374;2023-02-04T08:14:09;4.70;99.90
2130;DHT22;1071;52.544;13.374;2023-02-04T08:16:36;4.80;99.90
2130;DHT22;1071;52.544;13.374;2023-02-04T08:19:03;4.70;99.90
2130;DHT22;1071;52.544;13.374;2023-02-04T08:21:30;4.70;99.90
2130;DHT22;1071;52.544;13.374;2023-02-04T08:23:57;4.80;99.90
2130;DHT22;1071;52.544;13.374;2023-02-04T08:26:25;4.80;99.90
2130;DHT22;1071;52.544;13.374;2023-02-04T08:28:52;4.80;99.90
2130;DHT22;1071;52.544;13.374;2023-02-04T08:31:19;4.80;99.90
2130;DHT22;1071;52.544;13.374;2023-02-04T08:33:47;4.90;99.90
2130;DHT22;1071;52.544;13.374;2023-02-04T08:36:14;4.90;99.90
2130;DHT22;1071;52.544;13.374;2023-02-04T08:38:41;5.00;99.90
2130;DHT22;1071;52.544;13.374;2023-02-04T08:41:09;5.00;99.90
2130;DHT22;1071;52.544;13.374;2023-02-04T08:43:40;5.00;99.90
2130;DHT22;1071;52.544;13.374;2023-02-04T08:46:08;5.00;99.90
2130;DHT22;1071;52.544;13.374;2023-02-04T08:48:36;5.00;99.90
2130;DHT22;1071;52.544;13.374;2023-02-04T08:51:06;5.00;99.90
2130;DHT22;1071;52.544;13.374;2023-02-04T08:53:33;5.10;99.90
2130;DHT22;1071;52.544;13.374;2023-02-04T08:56:00;5.10;99.90
2130;DHT22;1071;52.544;13.374;2023-02-04T08:58:27;5.10;99.90
2130;DHT22;1071;52.544;13.374;2023-02-04T09:00:56;5.10;99.90
2130;DHT22;1071;52.544;13.374;2023-02-04T09:03:23;5.10;99.90
2130;DHT22;1071;52.544;13.374;2023-02-04T09:05:50;5.10;99.90
2130;DHT22;1071;52.544;13.374;2023-02-04T09:08:17;5.20;99.90
2130;DHT22;1071;52.544;13.374;2023-02-04T09:10:44;5.20;99.90
2130;DHT22;1071;52.544;13.374;2023-02-04T09:13:11;5.20;99.90
2130;DHT22;1071;52.544;13.374;2023-02-04T09:15:39;5.20;99.90
2130;DHT22;1071;52.544;13.374;2023-02-04T09:18:10;5.30;99.90
2130;DHT22;1071;52.544;13.374;2023-02-04T09:20:41;5.30;99.90
2130;DHT22;1071;52.544;13.374;2023-02-04T09:23:08;5.30;99.90
2130;DHT22;1071;52.544;13.374;2023-02-04T09:25:36;5.40;99.90
2130;DHT22;1071;52.544;13.374;2023-02-04T09:28:04;5.40;99.90
2130;DHT22;1071;52.544;13.374;2023-02-04T09:30:31;5.40;99.90
2130;DHT22;1071;52.544;13.374;2023-02-04T09:32:58;5.50;99.90
2130;DHT22;1071;52.544;13.374;2023-02-04T09:35:27;5.50;99.90
2130;DHT22;1071;52.544;13.374;2023-02-04T09:37:54;5.60;99.90
2130;DHT22;1071;52.544;13.374;2023-02-04T09:40:21;5.60;99.90
2130;DHT22;1071;52.544;13.374;2023-02-04T09:42:53;5.60;99.90
2130;DHT22;1071;52.544;13.374;2023-02-04T09:45:28;5.60;99.90
2130;DHT22;1071;52.544;13.374;2023-02-04T09:48:03;5.60;99.90
2130;DHT22;1071;52.544;13.374;2023-02-04T09:50:32;5.70;99.90
2130;DHT22;1071;52.544;13.374;2023-02-04T09:53:02;5.70;99.90
2130;DHT22;1071;52.544;13.374;2023-02-04T09:55:31;5.70;99.90
2130;DHT22;1071;52.544;13.374;2023-02-04T09:57:59;5.80;99.90
2130;DHT22;1071;52.544;13.374;2023-02-04T10:00:29;5.80;99.90
2130;DHT22;1071;52.544;13.374;2023-02-04T10:02:59;5.80;99.90
2130;DHT22;1071;52.544;13.374;2023-02-04T10:05:29;5.90;99.90
2130;DHT22;1071;52.544;13.374;2023-02-04T10:07:58;6.00;99.90
2130;DHT22;1071;52.544;13.374;2023-02-04T10:10:26;6.00;99.90
2130;DHT22;1071;52.544;13.374;2023-02-04T10:12:59;6.00;99.90
2130;DHT22;1071;52.544;13.374;2023-02-04T10:15:30;6.00;99.90
2130;DHT22;1071;52.544;13.374;2023-02-04T10:18:03;6.10;99.90
2130;DHT22;1071;52.544;13.374;2023-02-04T10:20:32;6.10;99.90
2130;DHT22;1071;52.544;13.374;2023-02-04T10:23:08;6.10;99.90
2130;DHT22;1071;52.544;13.374;2023-02-04T10:25:43;6.10;99.90
2130;DHT22;1071;52.544;13.374;2023-02-04T10:28:11;6.10;99.90
2130;DHT22;1071;52.544;13.374;2023-02-04T10:30:39;6.20;99.90
2130;DHT22;1071;52.544;13.374;2023-02-04T10:33:12;6.20;99.90
2130;DHT22;1071;52.544;13.374;2023-02-04T10:35:45;6.30;99.90
2130;DHT22;1071;52.544;13.374;2023-02-04T10:38:14;6.30;99.90
2130;DHT22;1071;52.544;13.374;2023-02-04T10:40:41;6.40;99.90
2130;DHT22;1071;52.544;13.374;2023-02-04T10:43:09;6.30;99.90
2130;DHT22;1071;52.544;13.374;2023-02-04T10:45:38;6.30;99.90
2130;DHT22;1071;52.544;13.374;2023-02-04T10:48:14;6.40;99.90
2130;DHT22;1071;52.544;13.374;2023-02-04T10:50:43;6.40;99.90
2130;DHT22;1071;52.544;13.374;2023-02-04T10:53:15;6.40;99.90
2130;DHT22;1071;52.544;13.374;2023-02-04T10:56:00;6.40;99.90
2130;DHT22;1071;52.544;13.374;2023-02-04T10:58:29;6.40;99.90
2130;DHT22;1071;52.544;13.374;2023-02-04T11:00:57;6.50;99.90
2130;DHT22;1071;52.544;13.374;2023-02-04T11:03:28;6.40;99.90
2130;DHT22;1071;52.544;13.374;2023-02-04T11:05:57;6.40;99.90
2130;DHT22;1071;52.544;13.374;2023-02-04T11:08:31;6.40;99.90
2130;DHT22;1071;52.544;13.374;2023-02-04T11:11:02;6.40;99.90
2130;DHT22;1071;52.544;13.374;2023-02-04T11:13:39;6.50;99.90
2130;DHT22;1071;52.544;13.374;2023-02-04T11:16:10;6.50;99.90
2130;DHT22;1071;52.544;13.374;2023-02-04T11:18:46;6.50;99.90
2130;DHT22;1071;52.544;13.374;2023-02-04T11:21:20;6.60;99.90
2130;DHT22;1071;52.544;13.374;2023-02-04T11:23:50;6.60;99.90
2130;DHT22;1071;52.544;13.374;2023-02-04T11:26:19;6.50;99.90
2130;DHT22;1071;52.544;13.374;2023-02-04T11:29:29;6.50;99.90
2130;DHT22;1071;52.544;13.374;2023-02-04T11:32:01;6.50;99.90
2130;DHT22;1071;52.544;13.374;2023-02-04T11:34:46;6.60;99.90
2130;DHT22;1071;52.544;13.374;2023-02-04T11:37:28;6.60;99.90
2130;DHT22;1071;52.544;13.374;2023-02-04T11:40:15;6.60;99.90
2130;DHT22;1071;52.544;13.374;2023-02-04T11:42:48;6.60;99.90
2130;DHT22;1071;52.544;13.374;2023-02-04T11:45:19;6.70;99.90
2130;DHT22;1071;52.544;13.374;2023-02-04T11:47:47;6.80;99.90
2130;DHT22;1071;52.544;13.374;2023-02-04T11:50:18;6.80;99.90
2130;DHT22;1071;52.544;13.374;2023-02-04T11:52:46;6.80;99.90
2130;DHT22;1071;52.544;13.374;2023-02-04T11:55:17;6.80;99.90
2130;DHT22;1071;52.544;13.374;2023-02-04T11:57:45;6.80;99.90
2130;DHT22;1071;52.544;13.374;2023-02-04T12:00:18;6.80;99.90
2130;DHT22;1071;52.544;13.374;2023-02-04T12:02:55;6.90;99.90
2130;DHT22;1071;52.544;13.374;2023-02-04T12:05:35;6.90;99.90
2130;DHT22;1071;52.544;13.374;2023-02-04T12:08:11;6.90;99.90
2130;DHT22;1071;52.544;13.374;2023-02-04T12:10:49;6.90;99.90
2130;DHT22;1071;52.544;13.374;2023-02-04T12:13:18;6.90;99.90
2130;DHT22;1071;52.544;13.374;2023-02-04T12:15:53;6.90;99.90
2130;DHT22;1071;52.544;13.374;2023-02-04T12:18:47;7.00;99.90
2130;DHT22;1071;52.544;13.374;2023-02-04T12:21:21;6.90;99.90
2130;DHT22;1071;52.544;13.374;2023-02-04T12:23:50;6.90;99.90
2130;DHT22;1071;52.544;13.374;2023-02-04T12:26:24;6.90;99.90
2130;DHT22;1071;52.544;13.374;2023-02-04T12:28:56;6.90;99.90
2130;DHT22;1071;52.544;13.374;2023-02-04T12:31:29;6.90;99.90
2130;DHT22;1071;52.544;13.374;2023-02-04T12:33:58;6.90;99.90
2130;DHT22;1071;52.544;13.374;2023-02-04T12:36:28;6.90;99.90
2130;DHT22;1071;52.544;13.374;2023-02-04T12:39:03;6.90;99.90
2130;DHT22;1071;52.544;13.374;2023-02-04T12:41:41;6.90;99.90
2130;DHT22;1071;52.544;13.374;2023-02-04T12:44:22;6.90;99.90
2130;DHT22;1071;52.544;13.374;2023-02-04T12:46:54;6.90;99.90
2130;DHT22;1071;52.544;13.374;2023-02-04T12:49:24;6.90;99.90
2130;DHT22;1071;52.544;13.374;2023-02-04T12:51:55;6.90;99.90
2130;DHT22;1071;52.544;13.374;2023-02-04T12:54:26;6.80;99.90
2130;DHT22;1071;52.544;13.374;2023-02-04T12:56:55;6.80;99.90
2130;DHT22;1071;52.544;13.374;2023-02-04T12:59:31;6.80;99.90
2130;DHT22;1071;52.544;13.374;2023-02-04T13:02:01;6.80;99.90
2130;DHT22;1071;52.544;13.374;2023-02-04T13:04:28;6.80;99.90
2130;DHT22;1071;52.544;13.374;2023-02-04T13:06:55;6.80;99.90
2130;DHT22;1071;52.544;13.374;2023-02-04T13:09:23;6.80;99.90
2130;DHT22;1071;52.544;13.374;2023-02-04T13:11:50;6.80;99.90
2130;DHT22;1071;52.544;13.374;2023-02-04T13:14:18;6.80;99.90
2130;DHT22;1071;52.544;13.374;2023-02-04T13:16:46;6.80;99.90
2130;DHT22;1071;52.544;13.374;2023-02-04T13:19:13;6.70;99.90
2130;DHT22;1071;52.544;13.374;2023-02-04T13:21:40;6.70;99.90
2130;DHT22;1071;52.544;13.374;2023-02-04T13:24:08;6.70;99.90
2130;DHT22;1071;52.544;13.374;2023-02-04T13:26:35;6.70;99.90
2130;DHT22;1071;52.544;13.374;2023-02-04T13:29:02;6.70;99.90
2130;DHT22;1071;52.544;13.374;2023-02-04T13:31:30;6.70;99.90
2130;DHT22;1071;52.544;13.374;2023-02-04T13:33:57;6.80;99.90
2130;DHT22;1071;52.544;13.374;2023-02-04T13:36:24;6.70;99.90
2130;DHT22;1071;52.544;13.374;2023-02-04T13:38:54;6.70;99.90
2130;DHT22;1071;52.544;13.374;2023-02-04T13:41:24;6.60;99.90
2130;DHT22;1071;52.544;13.374;2023-02-04T13:43:51;6.60;99.90
2130;DHT22;1071;52.544;13.374;2023-02-04T13:46:19;6.60;99.90
2130;DHT22;1071;52.544;13.374;2023-02-04T13:48:48;6.60;99.90
2130;DHT22;1071;52.544;13.374;2023-02-04T13:51:16;6.60;99.90
2130;DHT22;1071;52.544;13.374;2023-02-04T13:53:43;6.60;99.90
2130;DHT22;1071;52.544;13.374;2023-02-04T13:56:10;6.70;99.90
2130;DHT22;1071;52.544;13.374;2023-02-04T13:58:37;6.70;99.90
2130;DHT22;1071;52.544;13.374;2023-02-04T14:01:08;6.70;99.90
2130;DHT22;1071;52.544;13.374;2023-02-04T14:03:35;6.70;99.90
2130;DHT22;1071;52.544;13.374;2023-02-04T14:06:06;6.70;99.90
2130;DHT22;1071;52.544;13.374;2023-02-04T14:08:38;6.70;99.90
2130;DHT22;1071;52.544;13.374;2023-02-04T14:11:05;6.70;99.90
2130;DHT22;1071;52.544;13.374;2023-02-04T14:13:32;6.80;99.90
2130;DHT22;1071;52.544;13.374;2023-02-04T14:15:59;6.70;99.90
2130;DHT22;1071;52.544;13.374;2023-02-04T14:18:29;6.70;99.10
2130;DHT22;1071;52.544;13.374;2023-02-04T14:20:59;6.70;98.10
2130;DHT22;1071;52.544;13.374;2023-02-04T14:23:28;6.70;97.50
2130;DHT22;1071;52.544;13.374;2023-02-04T14:25:55;6.70;97.50
2130;DHT22;1071;52.544;13.374;2023-02-04T14:28:22;6.60;97.60
2130;DHT22;1071;52.544;13.374;2023-02-04T14:30:50;6.60;97.70
2130;DHT22;1071;52.544;13.374;2023-02-04T14:33:19;6.60;97.90
2130;DHT22;1071;52.544;13.374;2023-02-04T14:35:47;6.60;97.70
2130;DHT22;1071;52.544;13.374;2023-02-04T14:38:22;6.50;98.20
2130;DHT22;1071;52.544;13.374;2023-02-04T14:40:56;6.50;98.40
2130;DHT22;1071;52.544;13.374;2023-02-04T14:43:24;6.50;98.50
2130;DHT22;1071;52.544;13.374;2023-02-04T14:45:52;6.50;98.70
2130;DHT22;1071;52.544;13.374;2023-02-04T14:48:19;6.50;99.20
2130;DHT22;1071;52.544;13.374;2023-02-04T14:50:46;6.50;99.00
2130;DHT22;1071;52.544;13.374;2023-02-04T14:53:13;6.50;99.20
2130;DHT22;1071;52.544;13.374;2023-02-04T14:55:44;6.50;99.30
2130;DHT22;1071;52.544;13.374;2023-02-04T14:58:14;6.50;98.70
2130;DHT22;1071;52.544;13.374;2023-02-04T15:00:41;6.50;98.70
2130;DHT22;1071;52.544;13.374;2023-02-04T15:03:08;6.50;98.70
2130;DHT22;1071;52.544;13.374;2023-02-04T15:05:35;6.40;98.30
2130;DHT22;1071;52.544;13.374;2023-02-04T15:08:02;6.40;98.60
2130;DHT22;1071;52.544;13.374;2023-02-04T15:10:31;6.40;98.20
2130;DHT22;1071;52.544;13.374;2023-02-04T15:12:59;6.40;98.00
2130;DHT22;1071;52.544;13.374;2023-02-04T15:15:28;6.40;98.00
2130;DHT22;1071;52.544;13.374;2023-02-04T15:17:55;6.40;98.00
2130;DHT22;1071;52.544;13.374;2023-02-04T15:20:22;6.40;97.90
2130;DHT22;1071;52.544;13.374;2023-02-04T15:22:49;6.30;97.50
2130;DHT22;1071;52.544;13.374;2023-02-04T15:25:19;6.30;97.40
2130;DHT22;1071;52.544;13.374;2023-02-04T15:27:46;6.30;97.30
2130;DHT22;1071;52.544;13.374;2023-02-04T15:30:14;6.20;96.80
2130;DHT22;1071;52.544;13.374;2023-02-04T15:32:45;6.20;96.80
2130;DHT22;1071;52.544;13.374;2023-02-04T15:35:12;6.20;96.70
2130;DHT22;1071;52.544;13.374;2023-02-04T15:37:40;6.20;96.60
2130;DHT22;1071;52.544;13.374;2023-02-04T15:40:12;6.20;96.50
2130;DHT22;1071;52.544;13.374;2023-02-04T15:42:39;6.20;96.40
2130;DHT22;1071;52.544;13.374;2023-02-04T15:45:08;6.20;96.40
2130;DHT22;1071;52.544;13.374;2023-02-04T15:47:35;6.20;96.30
2130;DHT22;1071;52.544;13.374;2023-02-04T15:50:04;6.10;96.20
2130;DHT22;1071;52.544;13.374;2023-02-04T15:52:33;6.10;96.40
2130;DHT22;1071;52.544;13.374;2023-02-04T15:55:00;6.10;96.30
2130;DHT22;1071;52.544;13.374;2023-02-04T15:57:27;6.10;96.40
2130;DHT22;1071;52.544;13.374;2023-02-04T15:59:55;6.10;96.60
2130;DHT22;1071;52.544;13.374;2023-02-04T16:02:24;6.00;96.60
2130;DHT22;1071;52.544;13.374;2023-02-04T16:04:53;6.00;96.80
2130;DHT22;1071;52.544;13.374;2023-02-04T16:07:24;5.90;97.10
2130;DHT22;1071;52.544;13.374;2023-02-04T16:09:52;5.90;97.20
2130;DHT22;1071;52.544;13.374;2023-02-04T16:12:19;5.90;97.30